createdAt,value
2023-03-11T00:01:00.570Z,1.47
2023-03-11T00:02:03.472Z,1.45
2023-03-11T00:03:08.717Z,1.47
2023-03-11T00:04:11.089Z,1.48
2023-03-11T00:05:20.009Z,1.44
2023-03-11T00:06:22.457Z,1.42
2023-03-11T00:07:24.766Z,1.40
2023-03-11T00:08:27.166Z,1.40
2023-03-11T00:09:29.049Z,1.45
2023-03-11T00:10:34.351Z,1.40
2023-03-11T00:11:37.225Z,1.39
2023-03-11T00:12:39.103Z,1.43
2023-03-11T00:13:41.033Z,1.46
2023-03-11T00:14:43.071Z,1.42
2023-03-11T00:15:48.095Z,1.38
2023-03-11T00:16:50.204Z,1.41
2023-03-11T00:17:52.398Z,1.39
2023-03-11T00:18:54.453Z,1.38
2023-03-11T00:19:56.344Z,1.40
2023-03-11T00:20:59.293Z,1.43
2023-03-11T00:22:02.341Z,1.42
2023-03-11T00:23:06.571Z,1.36
2023-03-11T00:24:09.119Z,1.37
2023-03-11T00:25:12.854Z,1.39
2023-03-11T00:26:15.726Z,1.34
2023-03-11T00:27:17.658Z,1.34
2023-03-11T00:28:19.548Z,1.35
2023-03-11T00:29:21.852Z,1.38
2023-03-11T00:30:25.395Z,1.39
2023-03-11T00:31:29.177Z,1.41
2023-03-11T00:32:31.315Z,1.38
2023-03-11T00:33:33.348Z,1.39
2023-03-11T00:34:35.234Z,1.38
2023-03-11T00:35:37.143Z,1.40
2023-03-11T00:36:39.248Z,1.37
2023-03-11T00:37:41.939Z,1.38
2023-03-11T00:38:43.852Z,1.41
2023-03-11T00:39:45.975Z,1.38
2023-03-11T00:40:51.720Z,1.37
2023-03-11T00:41:53.683Z,1.37
2023-03-11T00:42:56.700Z,1.36
2023-03-11T00:43:59.092Z,1.36
2023-03-11T00:45:00.979Z,1.37
2023-03-11T00:46:03.253Z,1.37
2023-03-11T00:47:05.514Z,1.38
2023-03-11T00:48:08.024Z,1.37
2023-03-11T00:49:09.914Z,1.35
2023-03-11T00:50:18.799Z,1.39
2023-03-11T00:51:20.826Z,1.42
2023-03-11T00:52:22.806Z,1.42
2023-03-11T00:53:24.817Z,1.41
2023-03-11T00:54:27.509Z,1.41
2023-03-11T00:55:32.769Z,1.38
2023-03-11T00:56:35.238Z,1.37
2023-03-11T00:57:37.215Z,1.39
2023-03-11T00:58:40.172Z,1.38
2023-03-11T00:59:42.345Z,1.35
2023-03-11T01:00:44.630Z,1.37
2023-03-11T01:01:46.679Z,1.35
2023-03-11T01:02:49.394Z,1.36
2023-03-11T01:03:51.484Z,1.35
2023-03-11T01:04:57.112Z,1.38
2023-03-11T01:05:59.175Z,1.38
2023-03-11T01:07:02.525Z,1.35
2023-03-11T01:08:05.230Z,1.38
2023-03-11T01:09:07.282Z,1.38
2023-03-11T01:10:11.127Z,1.34
2023-03-11T01:11:13.209Z,1.35
2023-03-11T01:12:15.098Z,1.33
2023-03-11T01:13:16.987Z,1.38
2023-03-11T01:14:19.404Z,1.35
2023-03-11T01:15:25.276Z,1.36
2023-03-11T01:16:27.518Z,1.34
2023-03-11T01:17:30.522Z,1.36
2023-03-11T01:18:32.414Z,1.37
2023-03-11T01:19:34.394Z,1.36
2023-03-11T01:20:37.840Z,1.33
2023-03-11T01:21:40.282Z,1.36
2023-03-11T01:22:42.796Z,1.38
2023-03-11T01:23:45.115Z,1.35
2023-03-11T01:24:46.999Z,1.34
2023-03-11T01:25:49.107Z,1.37
2023-03-11T01:26:51.746Z,1.38
2023-03-11T01:27:53.654Z,1.41
2023-03-11T01:28:55.786Z,1.39
2023-03-11T01:29:57.688Z,1.34
2023-03-11T01:31:02.324Z,1.35
2023-03-11T01:32:05.842Z,1.37
2023-03-11T01:34:22.222Z,1.41
2023-03-11T01:35:27.051Z,1.35
2023-03-11T01:36:29.199Z,1.26
2023-03-11T01:37:31.191Z,1.34
2023-03-11T01:38:33.070Z,1.30
2023-03-11T01:39:35.175Z,1.23
2023-03-11T01:40:41.065Z,1.22
2023-03-11T01:41:43.241Z,1.26
2023-03-11T01:42:45.397Z,1.25
2023-03-11T01:43:51.157Z,1.23
2023-03-11T01:44:53.177Z,1.24
2023-03-11T01:45:58.872Z,1.21
2023-03-11T01:47:04.711Z,1.14
2023-03-11T01:48:10.344Z,1.17
2023-03-11T01:49:13.984Z,1.17
2023-03-11T01:50:16.953Z,1.16
2023-03-11T01:51:43.492Z,1.13
2023-03-11T01:52:47.079Z,1.12
2023-03-11T01:53:50.712Z,1.13
2023-03-11T01:54:52.613Z,1.17
2023-03-11T01:55:55.222Z,1.13
2023-03-11T01:56:59.812Z,1.09
2023-03-11T01:58:05.319Z,1.05
2023-03-11T01:59:10.529Z,1.04
2023-03-11T02:00:14.675Z,1.04
2023-03-11T02:01:20.585Z,1.07
2023-03-11T02:02:44.326Z,1.11
2023-03-11T02:03:47.509Z,1.07
2023-03-11T02:04:50.948Z,1.07
2023-03-11T02:05:55.357Z,1.08
2023-03-11T02:06:57.988Z,1.11
2023-03-11T02:08:00.871Z,1.01
2023-03-11T02:09:03.158Z,1.09
2023-03-11T02:10:06.832Z,1.08
2023-03-11T02:11:15.091Z,1.11
2023-03-11T02:12:17.571Z,1.11
2023-03-11T02:13:20.175Z,1.05
2023-03-11T02:14:23.971Z,1.01
2023-03-11T02:15:26.359Z,1.10
2023-03-11T02:16:30.315Z,1.12
2023-03-11T02:17:36.707Z,1.07
2023-03-11T02:18:42.841Z,0.99
2023-03-11T02:20:12.861Z,1.02
2023-03-11T02:21:22.351Z,1.03
2023-03-11T02:22:24.940Z,0.99
2023-03-11T02:23:33.713Z,1.03
2023-03-11T02:24:45.711Z,1.03
2023-03-11T02:25:54.317Z,1.03
2023-03-11T02:27:08.984Z,1.00
2023-03-11T02:28:13.648Z,1.01
2023-03-11T02:29:16.229Z,0.97
2023-03-11T02:30:21.186Z,0.93
2023-03-11T02:31:25.173Z,0.96
2023-03-11T02:32:28.579Z,0.97
2023-03-11T02:33:34.199Z,0.92
2023-03-11T02:34:38.721Z,0.96
2023-03-11T02:35:41.268Z,1.02
2023-03-11T02:36:43.447Z,1.02
2023-03-11T02:37:49.097Z,0.97
2023-03-11T02:38:51.183Z,0.93
2023-03-11T02:39:54.771Z,0.98
2023-03-11T02:40:59.672Z,1.02
2023-03-11T02:42:11.850Z,1.05
2023-03-11T02:43:17.733Z,0.97
2023-03-11T02:44:19.778Z,1.00
2023-03-11T02:45:25.284Z,0.97
2023-03-11T02:46:27.951Z,1.02
2023-03-11T02:47:30.657Z,1.02
2023-03-11T02:48:34.368Z,1.02
2023-03-11T02:49:37.132Z,1.03
2023-03-11T02:50:40.611Z,0.99
2023-03-11T02:51:42.756Z,1.00
2023-03-11T02:52:47.021Z,1.05
2023-03-11T02:53:52.977Z,1.06
2023-03-11T02:54:55.036Z,1.04
2023-03-11T02:55:56.898Z,1.00
2023-03-11T02:56:58.972Z,1.07
2023-03-11T02:58:01.002Z,1.00
2023-03-11T02:59:03.407Z,1.00
2023-03-11T03:00:07.574Z,1.02
2023-03-11T03:01:10.957Z,1.03
2023-03-11T03:02:13.248Z,1.11
2023-03-11T03:03:15.288Z,1.03
2023-03-11T03:04:17.525Z,1.03
2023-03-11T03:05:21.714Z,0.99
2023-03-11T03:06:25.132Z,1.00
2023-03-11T03:07:27.438Z,1.05
2023-03-11T03:08:29.481Z,1.03
2023-03-11T03:09:32.277Z,0.98
2023-03-11T03:10:34.389Z,1.00
2023-03-11T03:11:36.534Z,1.01
2023-03-11T03:12:38.400Z,0.97
2023-03-11T03:13:40.296Z,1.07
2023-03-11T03:14:42.203Z,1.07
2023-03-11T03:15:44.299Z,1.01
2023-03-11T03:16:46.544Z,1.04
2023-03-11T03:17:48.862Z,1.03
2023-03-11T03:18:50.780Z,1.04
2023-03-11T03:19:52.645Z,1.01
2023-03-11T03:20:55.904Z,0.99
2023-03-11T03:21:57.827Z,0.95
2023-03-11T03:22:59.697Z,0.97
2023-03-11T03:24:01.938Z,1.02
2023-03-11T03:25:05.224Z,0.97
2023-03-11T03:26:07.555Z,1.07
2023-03-11T03:27:09.586Z,1.00
2023-03-11T03:28:13.552Z,0.98
2023-03-11T03:29:15.541Z,0.99
2023-03-11T03:30:18.244Z,0.98
2023-03-11T03:31:20.626Z,0.97
2023-03-11T03:32:22.687Z,0.99
2023-03-11T03:33:24.775Z,1.01
2023-03-11T03:34:26.686Z,1.00
2023-03-11T03:35:28.725Z,0.97
2023-03-11T03:36:30.709Z,1.05
2023-03-11T03:37:35.998Z,1.00
2023-03-11T03:38:38.341Z,0.97
2023-03-11T03:39:41.233Z,0.93
2023-03-11T03:40:47.340Z,0.90
2023-03-11T03:41:50.465Z,0.95
2023-03-11T03:42:52.806Z,0.92
2023-03-11T03:43:57.610Z,0.91
2023-03-11T03:44:59.869Z,0.93
2023-03-11T03:46:04.535Z,0.93
2023-03-11T03:47:07.184Z,1.00
2023-03-11T03:48:09.454Z,0.91
2023-03-11T03:49:12.266Z,0.85
2023-03-11T03:50:15.269Z,0.83
2023-03-11T03:51:17.735Z,0.85
2023-03-11T03:52:19.725Z,0.86
2023-03-11T03:53:22.409Z,0.87
2023-03-11T03:54:24.794Z,0.88
2023-03-11T03:55:26.707Z,0.81
2023-03-11T03:56:28.829Z,0.89
2023-03-11T03:57:31.502Z,0.81
2023-03-11T03:58:34.533Z,0.89
2023-03-11T03:59:36.615Z,0.89
2023-03-11T04:00:39.029Z,0.92
2023-03-11T04:01:41.059Z,0.89
2023-03-11T04:02:43.039Z,0.89
2023-03-11T04:03:46.501Z,0.94
2023-03-11T04:04:49.140Z,0.91
2023-03-11T04:05:51.606Z,0.89
2023-03-11T04:06:53.801Z,0.85
2023-03-11T04:07:55.851Z,0.85
2023-03-11T04:08:57.828Z,0.88
2023-03-11T04:10:00.840Z,0.79
2023-03-11T04:11:03.398Z,0.84
2023-03-11T04:12:06.601Z,0.86
2023-03-11T04:13:09.016Z,0.88
2023-03-11T04:14:11.278Z,0.90
2023-03-11T04:15:13.173Z,0.91
2023-03-11T04:16:18.962Z,0.91
2023-03-11T04:17:21.038Z,0.95
2023-03-11T04:18:23.294Z,0.95
2023-03-11T04:19:26.347Z,0.92
2023-03-11T04:20:28.350Z,0.93
2023-03-11T04:21:31.379Z,0.95
2023-03-11T04:22:34.167Z,0.94
2023-03-11T04:23:37.054Z,0.95
2023-03-11T04:24:39.078Z,0.94
2023-03-11T04:25:41.201Z,0.95
2023-03-11T04:26:43.221Z,0.96
2023-03-11T04:27:45.231Z,0.91
2023-03-11T04:28:47.385Z,0.93
2023-03-11T04:29:51.006Z,0.92
2023-03-11T04:30:53.194Z,0.82
2023-03-11T04:31:55.364Z,0.84
2023-03-11T04:32:58.244Z,0.85
2023-03-11T04:34:00.254Z,0.86
2023-03-11T04:35:02.646Z,0.84
2023-03-11T04:36:06.972Z,0.85
2023-03-11T04:37:09.627Z,0.87
2023-03-11T04:38:11.621Z,0.92
2023-03-11T04:39:17.154Z,0.88
2023-03-11T04:40:19.420Z,0.90
2023-03-11T04:41:21.440Z,0.92
2023-03-11T04:42:23.619Z,0.91
2023-03-11T04:43:26.485Z,0.86
2023-03-11T04:44:28.472Z,0.89
2023-03-11T04:45:30.524Z,0.88
2023-03-11T04:46:32.730Z,0.89
2023-03-11T04:47:34.771Z,0.93
2023-03-11T04:48:36.905Z,1.00
2023-03-11T04:49:38.778Z,0.94
2023-03-11T04:50:40.767Z,0.99
2023-03-11T04:51:43.100Z,0.99
2023-03-11T04:52:46.652Z,0.91
2023-03-11T04:53:48.585Z,0.89
2023-03-11T04:54:51.274Z,0.85
2023-03-11T04:55:58.971Z,0.97
2023-03-11T04:57:01.003Z,0.91
2023-03-11T04:58:03.212Z,0.99
2023-03-11T04:59:05.222Z,1.00
2023-03-11T05:00:11.144Z,0.98
2023-03-11T05:01:13.248Z,1.01
2023-03-11T05:02:15.233Z,1.07
2023-03-11T05:03:17.326Z,1.06
2023-03-11T05:04:19.579Z,1.09
2023-03-11T05:05:21.647Z,1.08
2023-03-11T05:06:23.865Z,1.08
2023-03-11T05:07:25.736Z,1.13
2023-03-11T05:08:27.962Z,1.19
2023-03-11T05:09:29.861Z,1.18
2023-03-11T05:10:32.310Z,1.18
2023-03-11T05:11:34.423Z,1.18
2023-03-11T05:12:36.497Z,1.16
2023-03-11T05:13:39.119Z,1.23
2023-03-11T05:14:41.011Z,1.24
2023-03-11T05:15:45.460Z,1.22
2023-03-11T05:16:48.658Z,1.30
2023-03-11T05:17:50.635Z,1.29
2023-03-11T05:18:52.615Z,1.33
2023-03-11T05:19:55.438Z,1.34
2023-03-11T05:20:58.087Z,1.38
2023-03-11T05:22:02.315Z,1.47
2023-03-11T05:23:04.452Z,1.45
2023-03-11T05:24:06.698Z,1.51
2023-03-11T05:25:11.950Z,1.55
2023-03-11T05:26:14.420Z,1.48
2023-03-11T05:27:16.591Z,1.61
2023-03-11T05:28:18.457Z,1.64
2023-03-11T05:29:21.538Z,1.67
2023-03-11T05:30:24.257Z,1.75
2023-03-11T05:31:26.301Z,1.77
2023-03-11T05:32:29.276Z,1.76
2023-03-11T05:33:31.516Z,1.79
2023-03-11T05:34:33.691Z,1.88
2023-03-11T05:35:35.749Z,1.87
2023-03-11T05:36:38.564Z,1.97
2023-03-11T05:37:41.374Z,2.01
2023-03-11T05:38:43.458Z,2.02
2023-03-11T05:39:45.360Z,2.11
2023-03-11T05:40:47.550Z,2.13
2023-03-11T05:41:49.441Z,2.18
2023-03-11T05:42:51.425Z,2.22
2023-03-11T05:43:53.341Z,2.25
2023-03-11T05:44:55.834Z,2.28
2023-03-11T05:45:57.860Z,2.37
2023-03-11T05:47:01.593Z,2.37
2023-03-11T05:48:04.081Z,2.40
2023-03-11T05:49:06.067Z,2.44
2023-03-11T05:50:10.921Z,2.57
2023-03-11T05:51:14.442Z,2.54
2023-03-11T05:52:17.370Z,2.62
2023-03-11T05:53:19.291Z,2.74
2023-03-11T05:54:21.158Z,2.77
2023-03-11T05:55:23.138Z,2.88
2023-03-11T05:56:26.761Z,2.81
2023-03-11T05:57:29.009Z,2.84
2023-03-11T05:58:32.121Z,2.84
2023-03-11T05:59:34.423Z,2.89
2023-03-11T06:00:36.400Z,2.88
2023-03-11T06:01:40.282Z,2.90
2023-03-11T06:02:42.764Z,2.89
2023-03-11T06:03:46.927Z,2.84
2023-03-11T06:04:50.287Z,2.87
2023-03-11T06:05:53.549Z,2.90
2023-03-11T06:06:55.692Z,2.84
2023-03-11T06:07:58.259Z,2.80
2023-03-11T06:09:01.994Z,2.81
2023-03-11T06:10:05.988Z,2.83
2023-03-11T06:11:09.948Z,2.85
2023-03-11T06:12:12.155Z,2.90
2023-03-11T06:13:14.310Z,2.85
2023-03-11T06:14:16.755Z,2.87
2023-03-11T06:15:18.862Z,2.87
2023-03-11T06:16:24.739Z,2.88
2023-03-11T06:17:29.337Z,2.90
2023-03-11T06:18:30.928Z,2.91
2023-03-11T06:19:33.413Z,2.89
2023-03-11T06:20:37.023Z,2.98
2023-03-11T06:21:39.217Z,2.91
2023-03-11T06:22:41.440Z,2.99
2023-03-11T06:23:45.868Z,2.95
2023-03-11T06:24:48.079Z,3.05
2023-03-11T06:25:58.455Z,3.09
2023-03-11T06:27:00.498Z,3.09
2023-03-11T06:28:02.648Z,3.15
2023-03-11T06:29:06.771Z,3.15
2023-03-11T06:30:11.718Z,3.21
2023-03-11T06:32:27.369Z,3.38
2023-03-11T06:33:29.380Z,3.28
2023-03-11T06:34:31.461Z,3.31
2023-03-11T06:35:33.493Z,3.32
2023-03-11T06:36:35.627Z,3.31
2023-03-11T06:37:39.188Z,3.32
2023-03-11T06:38:41.341Z,3.29
2023-03-11T06:39:43.481Z,3.30
2023-03-11T06:40:45.641Z,3.33
2023-03-11T06:41:47.522Z,3.38
2023-03-11T06:42:49.726Z,3.35
2023-03-11T06:43:51.881Z,3.39
2023-03-11T06:44:53.919Z,3.38
2023-03-11T06:45:56.315Z,3.38
2023-03-11T06:46:58.496Z,3.46
2023-03-11T06:48:00.480Z,3.39
2023-03-11T06:49:02.724Z,3.45
2023-03-11T06:50:06.026Z,3.48
2023-03-11T06:51:10.782Z,3.48
2023-03-11T06:52:13.057Z,3.59
2023-03-11T06:53:16.907Z,3.68
2023-03-11T06:54:19.501Z,3.70
2023-03-11T06:55:21.645Z,3.76
2023-03-11T06:56:24.347Z,3.76
2023-03-11T06:57:26.673Z,3.82
2023-03-11T06:58:30.266Z,3.90
2023-03-11T06:59:32.742Z,3.95
2023-03-11T07:00:36.075Z,3.98
2023-03-11T07:01:38.230Z,4.00
2023-03-11T07:02:40.606Z,4.15
2023-03-11T07:03:45.076Z,4.19
2023-03-11T07:04:51.051Z,4.26
2023-03-11T07:05:53.109Z,4.28
2023-03-11T07:06:57.529Z,4.34
2023-03-11T07:07:59.464Z,4.34
2023-03-11T07:09:01.671Z,4.38
2023-03-11T07:10:05.716Z,4.49
2023-03-11T07:11:20.262Z,4.59
2023-03-11T07:12:23.044Z,4.59
2023-03-11T07:13:25.735Z,4.60
2023-03-11T07:14:28.126Z,4.59
2023-03-11T07:15:30.142Z,4.67
2023-03-11T07:16:32.215Z,4.75
2023-03-11T07:17:34.234Z,4.68
2023-03-11T07:18:37.253Z,4.67
2023-03-11T07:19:39.276Z,4.66
2023-03-11T07:20:41.564Z,4.73
2023-03-11T07:21:43.609Z,4.67
2023-03-11T07:22:45.717Z,4.68
2023-03-11T07:23:50.830Z,4.63
2023-03-11T07:24:52.913Z,4.66
2023-03-11T07:25:55.029Z,4.67
2023-03-11T07:26:57.273Z,4.68
2023-03-11T07:27:59.144Z,4.70
2023-03-11T07:29:01.658Z,4.70
2023-03-11T07:30:06.166Z,4.71
2023-03-11T07:31:10.702Z,4.76
2023-03-11T07:32:12.820Z,4.78
2023-03-11T07:33:15.776Z,4.73
2023-03-11T07:34:18.838Z,4.71
2023-03-11T07:35:21.108Z,4.77
2023-03-11T07:36:24.441Z,4.81
2023-03-11T07:37:26.437Z,4.83
2023-03-11T07:38:28.326Z,4.83
2023-03-11T07:39:31.486Z,4.78
2023-03-11T07:40:34.535Z,4.84
2023-03-11T07:41:36.441Z,4.81
2023-03-11T07:42:38.566Z,4.85
2023-03-11T07:43:43.056Z,4.79
2023-03-11T07:44:47.480Z,4.81
2023-03-11T07:45:50.160Z,4.86
2023-03-11T07:46:52.351Z,4.81
2023-03-11T07:47:54.284Z,4.80
2023-03-11T07:48:56.712Z,4.82
2023-03-11T07:49:59.244Z,4.77
2023-03-11T07:51:03.746Z,4.79
2023-03-11T07:52:06.753Z,4.82
2023-03-11T07:53:09.649Z,4.77
2023-03-11T07:54:13.096Z,4.85
2023-03-11T07:55:15.832Z,4.91
2023-03-11T07:56:19.514Z,4.86
2023-03-11T07:57:21.652Z,4.85
2023-03-11T07:58:28.059Z,4.88
2023-03-11T07:59:30.140Z,4.80
2023-03-11T08:00:32.527Z,4.77
2023-03-11T08:01:34.542Z,4.79
2023-03-11T08:02:36.566Z,4.73
2023-03-11T08:03:38.783Z,4.82
2023-03-11T08:04:40.922Z,4.82
2023-03-11T08:05:43.154Z,4.80
2023-03-11T08:06:47.535Z,4.79
2023-03-11T08:07:49.544Z,4.78
2023-03-11T08:08:52.258Z,4.76
2023-03-11T08:09:54.262Z,4.71
2023-03-11T08:10:56.356Z,4.70
2023-03-11T08:11:58.239Z,4.74
2023-03-11T08:13:00.155Z,4.68
2023-03-11T08:14:02.349Z,4.73
2023-03-11T08:15:07.807Z,4.74
2023-03-11T08:16:13.851Z,4.74
2023-03-11T08:17:16.320Z,4.76
2023-03-11T08:18:18.326Z,4.74
2023-03-11T08:19:20.295Z,4.79
2023-03-11T08:20:24.038Z,4.80
2023-03-11T08:21:29.090Z,4.78
2023-03-11T08:22:31.141Z,4.76
2023-03-11T08:23:33.225Z,4.74
2023-03-11T08:24:35.213Z,4.83
2023-03-11T08:25:41.768Z,4.88
2023-03-11T08:26:46.084Z,4.82
2023-03-11T08:27:48.296Z,4.83
2023-03-11T08:28:50.382Z,4.82
2023-03-11T08:29:52.676Z,4.71
2023-03-11T08:30:54.982Z,4.79
2023-03-11T08:31:57.419Z,4.77
2023-03-11T08:32:59.434Z,4.82
2023-03-11T08:34:07.844Z,4.74
2023-03-11T08:35:11.077Z,4.82
2023-03-11T08:36:13.517Z,4.79
2023-03-11T08:37:15.512Z,4.78
2023-03-11T08:38:17.705Z,4.85
2023-03-11T08:39:19.720Z,4.73
2023-03-11T08:40:22.841Z,4.76
2023-03-11T08:41:25.645Z,4.76
2023-03-11T08:42:27.580Z,4.79
2023-03-11T08:43:29.459Z,4.67
2023-03-11T08:44:31.373Z,4.68
2023-03-11T08:45:33.839Z,4.70
2023-03-11T08:46:37.730Z,4.66
2023-03-11T08:47:40.664Z,4.69
2023-03-11T08:48:42.710Z,4.66
2023-03-11T08:49:44.667Z,4.62
2023-03-11T08:50:53.851Z,4.67
2023-03-11T08:51:52.820Z,4.67
2023-03-11T08:52:54.714Z,4.76
2023-03-11T08:53:56.724Z,4.69
2023-03-11T08:54:58.796Z,4.72
2023-03-11T08:56:01.858Z,4.72
2023-03-11T08:57:03.772Z,4.74
2023-03-11T08:58:07.241Z,4.68
2023-03-11T08:59:09.209Z,4.61
2023-03-11T09:00:13.318Z,4.58
2023-03-11T09:01:16.136Z,4.61
2023-03-11T09:02:18.053Z,4.56
2023-03-11T09:03:20.176Z,4.46
2023-03-11T09:04:22.259Z,4.48
2023-03-11T09:05:24.340Z,4.46
2023-03-11T09:06:26.479Z,4.42
2023-03-11T09:07:29.794Z,4.38
2023-03-11T09:08:31.704Z,4.45
2023-03-11T09:09:33.678Z,4.40
2023-03-11T09:10:35.952Z,4.45
2023-03-11T09:11:38.832Z,4.49
2023-03-11T09:12:41.337Z,4.49
2023-03-11T09:13:44.009Z,4.46
2023-03-11T09:14:47.011Z,4.49
2023-03-11T09:15:50.700Z,4.50
2023-03-11T09:16:52.892Z,4.43
2023-03-11T09:17:54.977Z,4.47
2023-03-11T09:18:57.330Z,4.46
2023-03-11T09:19:59.295Z,4.46
2023-03-11T09:21:01.405Z,4.44
2023-03-11T09:22:04.584Z,4.47
2023-03-11T09:23:07.402Z,4.44
2023-03-11T09:24:09.304Z,4.47
2023-03-11T09:25:13.627Z,4.47
2023-03-11T09:26:15.982Z,4.47
2023-03-11T09:27:18.060Z,4.49
2023-03-11T09:28:20.509Z,4.46
2023-03-11T09:29:23.157Z,4.54
2023-03-11T09:30:25.206Z,4.51
2023-03-11T09:31:27.553Z,4.54
2023-03-11T09:32:29.854Z,4.51
2023-03-11T09:33:37.355Z,4.55
2023-03-11T09:34:40.725Z,4.54
2023-03-11T09:35:42.822Z,4.55
2023-03-11T09:36:45.725Z,4.55
2023-03-11T09:37:47.735Z,4.56
2023-03-11T09:38:49.822Z,4.54
2023-03-11T09:39:53.119Z,4.57
2023-03-11T09:41:07.685Z,4.53
2023-03-11T09:42:19.301Z,4.56
2023-03-11T09:43:31.048Z,4.59
2023-03-11T09:44:46.358Z,4.59
2023-03-11T09:47:06.400Z,4.66
2023-03-11T09:48:33.180Z,4.62
2023-03-11T09:49:58.542Z,4.64
2023-03-11T09:51:06.984Z,4.59
2023-03-11T09:52:12.656Z,4.59
2023-03-11T09:53:36.217Z,4.60
2023-03-11T09:55:57.417Z,4.63
2023-03-11T09:57:02.506Z,4.61
2023-03-11T09:58:18.363Z,4.60
2023-03-11T09:59:31.961Z,4.61
2023-03-11T10:00:35.101Z,4.58
2023-03-11T10:01:43.689Z,4.62
2023-03-11T10:02:46.456Z,4.59
2023-03-11T10:03:51.419Z,4.62
2023-03-11T10:05:09.097Z,4.62
2023-03-11T10:06:18.149Z,4.55
2023-03-11T10:07:23.840Z,4.59
2023-03-11T10:08:29.633Z,4.66
2023-03-11T10:09:39.588Z,4.62
2023-03-11T10:10:45.589Z,4.68
2023-03-11T10:12:00.527Z,4.64
2023-03-11T10:13:12.415Z,4.66
2023-03-11T10:14:21.298Z,4.71
2023-03-11T10:15:30.869Z,4.72
2023-03-11T10:16:46.943Z,4.67
2023-03-11T10:18:05.452Z,4.74
2023-03-11T10:20:40.814Z,4.70
2023-03-11T10:21:55.203Z,4.69
2023-03-11T10:23:34.562Z,4.68
2023-03-11T10:24:58.365Z,4.62
2023-03-11T10:26:07.006Z,4.63
2023-03-11T10:27:12.788Z,4.57
2023-03-11T10:28:20.586Z,4.62
2023-03-11T10:29:32.435Z,4.58
2023-03-11T10:30:53.359Z,4.59
2023-03-11T10:32:16.980Z,4.62
2023-03-11T10:33:42.790Z,4.66
2023-03-11T10:35:05.088Z,4.60
2023-03-11T10:36:11.240Z,4.58
2023-03-11T10:37:49.311Z,4.58
2023-03-11T10:38:49.871Z,4.61
2023-03-11T10:39:52.050Z,4.64
2023-03-11T10:40:56.954Z,4.63
2023-03-11T10:42:02.265Z,4.65
2023-03-11T10:44:35.808Z,4.68
2023-03-11T10:45:40.066Z,4.64
2023-03-11T10:46:42.147Z,4.65
2023-03-11T10:47:44.023Z,4.62
2023-03-11T10:48:46.030Z,4.60
2023-03-11T10:49:49.247Z,4.61
2023-03-11T10:51:04.287Z,4.65
2023-03-11T10:52:06.506Z,4.60
2023-03-11T10:53:12.263Z,4.60
2023-03-11T10:54:34.487Z,4.61
2023-03-11T10:55:40.199Z,4.58
2023-03-11T10:56:42.514Z,4.64
2023-03-11T10:57:44.634Z,4.62
2023-03-11T10:58:51.952Z,4.63
2023-03-11T10:59:56.509Z,4.65
2023-03-11T11:01:03.559Z,4.63
2023-03-11T11:02:34.006Z,4.69
2023-03-11T11:03:37.946Z,4.63
2023-03-11T11:04:40.447Z,4.63
2023-03-11T11:05:42.522Z,4.71
2023-03-11T11:06:46.071Z,4.67
2023-03-11T11:08:03.631Z,4.67
2023-03-11T11:09:26.642Z,4.67
2023-03-11T11:10:29.491Z,4.70
2023-03-11T11:11:32.203Z,4.68
2023-03-11T11:12:34.085Z,4.71
2023-03-11T11:13:35.962Z,4.75
2023-03-11T11:14:43.913Z,4.74
2023-03-11T11:15:59.086Z,4.78
2023-03-11T11:17:01.868Z,4.73
2023-03-11T11:18:16.404Z,4.75
2023-03-11T11:19:19.950Z,4.78
2023-03-11T11:20:24.617Z,4.83
2023-03-11T11:21:39.409Z,4.83
2023-03-11T11:22:57.174Z,4.87
2023-03-11T11:24:18.759Z,4.89
2023-03-11T11:25:37.035Z,4.91
2023-03-11T11:26:39.590Z,4.94
2023-03-11T11:27:45.335Z,4.93
2023-03-11T11:30:14.835Z,4.99
2023-03-11T11:31:23.435Z,4.92
2023-03-11T11:32:27.806Z,5.03
2023-03-11T11:33:51.452Z,4.99
2023-03-11T11:35:02.467Z,5.02
2023-03-11T11:36:08.034Z,5.02
2023-03-11T11:37:12.664Z,5.10
2023-03-11T11:38:15.032Z,5.02
2023-03-11T11:39:19.720Z,5.10
2023-03-11T11:40:33.214Z,5.11
2023-03-11T11:41:36.079Z,5.17
2023-03-11T11:42:41.726Z,5.14
2023-03-11T11:43:55.929Z,5.20
2023-03-11T11:45:01.731Z,5.21
2023-03-11T11:46:25.733Z,5.21
2023-03-11T11:47:31.556Z,5.24
2023-03-11T11:48:37.282Z,5.24
2023-03-11T11:49:43.911Z,5.24
2023-03-11T11:50:59.146Z,5.29
2023-03-11T11:52:29.609Z,5.24
2023-03-11T11:53:38.219Z,5.26
2023-03-11T11:54:48.825Z,5.32
2023-03-11T11:55:52.763Z,5.32
2023-03-11T11:56:56.595Z,5.35
2023-03-11T11:58:01.350Z,5.34
2023-03-11T11:59:07.145Z,5.34
2023-03-11T12:00:19.606Z,5.39
2023-03-11T12:01:41.369Z,5.39
2023-03-11T12:03:03.777Z,5.39
2023-03-11T12:04:21.690Z,5.43
2023-03-11T12:05:29.495Z,5.39
2023-03-11T12:06:43.068Z,5.43
2023-03-11T12:08:04.213Z,5.37
2023-03-11T12:09:25.840Z,5.41
2023-03-11T12:10:37.916Z,5.36
2023-03-11T12:13:45.540Z,5.45
2023-03-11T12:15:03.129Z,5.48
2023-03-11T12:16:18.825Z,5.51
2023-03-11T12:17:24.047Z,5.59
2023-03-11T12:18:41.425Z,5.59
2023-03-11T12:21:13.152Z,5.60
2023-03-11T12:22:48.264Z,5.58
2023-03-11T12:24:18.154Z,5.60
2023-03-11T12:25:40.911Z,5.60
2023-03-11T12:26:45.839Z,5.64
2023-03-11T12:27:57.489Z,5.62
2023-03-11T12:29:16.203Z,5.65
2023-03-11T12:30:25.190Z,5.63
2023-03-11T12:31:30.915Z,5.69
2023-03-11T12:32:42.381Z,5.69
2023-03-11T12:33:49.394Z,5.72
2023-03-11T12:34:52.401Z,5.72
2023-03-11T12:35:57.724Z,5.71
2023-03-11T12:37:02.367Z,5.71
2023-03-11T12:38:19.961Z,5.71
2023-03-11T12:39:26.128Z,5.72
2023-03-11T12:40:51.826Z,5.74
2023-03-11T12:42:14.208Z,5.73
2023-03-11T12:43:34.336Z,5.78
2023-03-11T12:44:37.700Z,5.78
2023-03-11T12:45:48.987Z,5.74
2023-03-11T12:46:55.891Z,5.76
2023-03-11T12:48:28.365Z,5.78
2023-03-11T12:50:42.700Z,5.84
2023-03-11T12:52:08.825Z,5.79
2023-03-11T12:53:14.585Z,5.83
2023-03-11T12:54:31.769Z,5.87
2023-03-11T12:55:36.322Z,5.82
2023-03-11T12:56:47.301Z,5.82
2023-03-11T12:57:53.078Z,5.84
2023-03-11T12:59:05.487Z,5.83
2023-03-11T13:00:34.269Z,5.89
2023-03-11T13:01:58.360Z,5.86
2023-03-11T13:04:23.472Z,5.94
2023-03-11T13:05:49.282Z,5.88
2023-03-11T13:07:24.349Z,5.88
2023-03-11T13:08:38.438Z,5.88
2023-03-11T13:09:40.702Z,5.86
2023-03-11T13:10:45.627Z,5.84
2023-03-11T13:11:48.475Z,5.86
2023-03-11T13:12:52.277Z,5.91
2023-03-11T13:14:16.350Z,5.96
2023-03-11T13:15:22.040Z,5.94
2023-03-11T13:16:28.176Z,5.95
2023-03-11T13:17:30.416Z,5.98
2023-03-11T13:18:32.813Z,6.03
2023-03-11T13:19:38.556Z,6.03
2023-03-11T13:20:47.281Z,6.06
2023-03-11T13:21:49.224Z,6.02
2023-03-11T13:23:01.356Z,6.07
2023-03-11T13:24:22.290Z,6.05
2023-03-11T13:25:30.750Z,6.11
2023-03-11T13:27:47.777Z,6.17
2023-03-11T13:28:59.770Z,6.16
2023-03-11T13:30:11.534Z,6.18
2023-03-11T13:31:38.524Z,6.19
2023-03-11T13:34:40.515Z,6.13
2023-03-11T13:35:46.328Z,6.13
2023-03-11T13:36:52.591Z,6.19
2023-03-11T13:38:15.371Z,6.20
2023-03-11T13:39:33.272Z,6.26
2023-03-11T13:40:41.858Z,6.23
2023-03-11T13:41:45.279Z,6.22
2023-03-11T13:42:53.201Z,6.26
2023-03-11T13:43:59.352Z,6.22
2023-03-11T13:45:01.714Z,6.27
2023-03-11T13:46:08.400Z,6.27
2023-03-11T13:47:16.224Z,6.28
2023-03-11T13:48:25.093Z,6.28
2023-03-11T13:49:33.625Z,6.28
2023-03-11T13:50:42.162Z,6.31
2023-03-11T13:51:46.603Z,6.34
2023-03-11T13:52:52.284Z,6.34
2023-03-11T13:53:58.036Z,6.29
2023-03-11T13:55:07.426Z,6.29
2023-03-11T13:56:18.698Z,6.29
2023-03-11T13:57:30.366Z,6.32
2023-03-11T13:58:32.280Z,6.35
2023-03-11T13:59:35.028Z,6.40
2023-03-11T14:00:37.380Z,6.40
2023-03-11T14:01:40.591Z,6.41
2023-03-11T14:03:00.713Z,6.43
2023-03-11T14:04:06.966Z,6.43
2023-03-11T14:05:12.798Z,6.48
2023-03-11T14:06:20.072Z,6.50
2023-03-11T14:07:31.637Z,6.50
2023-03-11T14:08:36.576Z,6.54
2023-03-11T14:09:38.786Z,6.55
2023-03-11T14:10:56.794Z,6.59
2023-03-11T14:12:06.893Z,6.60
2023-03-11T14:13:15.654Z,6.60
2023-03-11T14:14:33.630Z,6.64
2023-03-11T14:15:42.377Z,6.61
2023-03-11T14:16:44.864Z,6.59
2023-03-11T14:17:48.838Z,6.65
2023-03-11T14:19:18.581Z,6.69
2023-03-11T14:20:23.259Z,6.68
2023-03-11T14:21:25.406Z,6.66
2023-03-11T14:22:27.526Z,6.74
2023-03-11T14:23:35.534Z,6.74
2023-03-11T14:24:38.062Z,6.76
2023-03-11T14:25:41.924Z,6.74
2023-03-11T14:26:45.508Z,6.82
2023-03-11T14:27:57.040Z,6.80
2023-03-11T14:29:03.556Z,6.81
2023-03-11T14:30:07.772Z,6.80
2023-03-11T14:31:22.541Z,6.84
2023-03-11T14:33:38.954Z,6.89
2023-03-11T14:34:40.982Z,6.89
2023-03-11T14:35:52.756Z,6.89
2023-03-11T14:37:00.135Z,6.89
2023-03-11T14:38:07.047Z,6.87
2023-03-11T14:39:29.487Z,6.88
2023-03-11T14:40:35.328Z,6.87
2023-03-11T14:41:39.256Z,6.89
2023-03-11T14:42:45.078Z,6.87
2023-03-11T14:43:49.892Z,6.89
2023-03-11T14:44:58.445Z,6.89
2023-03-11T14:46:02.432Z,6.90
2023-03-11T14:47:16.989Z,6.92
2023-03-11T14:48:32.046Z,6.95
2023-03-11T14:49:35.226Z,6.96
2023-03-11T14:50:37.673Z,6.95